Time;durP1;ratioP1;P1;durP2;ratioP2;P2;SDS_P1;SDS_P2;PMS_P1;PMS_P2;Temp;Humidity;BMP_temperature;BMP_pressure;BME280_temperature;BME280_humidity;BME280_pressure;Samples;Min_cycle;Max_cycle;Signal;HPM_P1;HPM_P2
2021/05/15 00:00:14;;;;;;;4.53;4.23;;;21.90;53.20;;;;;;4938993;28;20430;-68
2021/05/15 00:02:40;;;;;;;4.67;4.27;;;21.90;53.30;;;;;;4954471;28;20423;-70
2021/05/15 00:05:07;;;;;;;4.97;4.47;;;21.90;53.20;;;;;;4926181;28;20439;-73
2021/05/15 00:07:34;;;;;;;4.72;4.43;;;21.90;53.30;;;;;;4932592;28;20423;-68
2021/05/15 00:10:00;;;;;;;4.50;4.20;;;21.80;53.00;;;;;;4942044;28;20412;-70
2021/05/15 00:12:27;;;;;;;4.47;4.07;;;21.80;53.20;;;;;;4954626;28;20957;-69
2021/05/15 00:14:53;;;;;;;4.93;4.53;;;21.80;53.30;;;;;;4934991;28;20419;-70
2021/05/15 00:17:19;;;;;;;4.50;4.30;;;21.80;53.30;;;;;;4951278;28;20461;-70
2021/05/15 00:19:45;;;;;;;4.43;4.13;;;21.90;53.40;;;;;;4932660;28;20479;-69
2021/05/15 00:22:11;;;;;;;4.55;4.15;;;21.90;53.30;;;;;;4954643;28;20481;-68
2021/05/15 00:24:38;;;;;;;4.93;4.53;;;21.90;53.30;;;;;;4945491;28;20419;-67
2021/05/15 00:27:05;;;;;;;4.90;4.20;;;21.90;53.20;;;;;;4938810;28;20933;-69
2021/05/15 00:29:31;;;;;;;4.45;4.15;;;21.90;53.10;;;;;;4934886;28;20434;-67
2021/05/15 00:31:57;;;;;;;4.35;4.05;;;21.90;53.20;;;;;;4937249;28;20431;-68
2021/05/15 00:34:23;;;;;;;5.20;4.70;;;21.90;53.30;;;;;;4943377;28;20563;-67
2021/05/15 00:36:50;;;;;;;4.65;4.30;;;21.90;53.10;;;;;;4954167;28;20422;-69
2021/05/15 00:39:16;;;;;;;4.82;4.38;;;21.80;53.00;;;;;;4935016;28;20481;-69
2021/05/15 00:41:43;;;;;;;4.88;4.50;;;21.80;53.10;;;;;;4933258;28;20429;-68
2021/05/15 00:44:15;;;;;;;4.30;4.00;;;21.80;52.80;;;;;;4933487;28;20910;-69
2021/05/15 00:46:43;;;;;;;6.18;4.28;;;21.80;53.20;;;;;;4933300;28;20523;-68
2021/05/15 00:49:09;;;;;;;4.93;4.53;;;21.80;53.10;;;;;;4931884;28;20422;-70
2021/05/15 00:51:35;;;;;;;4.30;4.00;;;21.80;53.20;;;;;;4953058;28;20426;-70
2021/05/15 00:54:01;;;;;;;4.97;4.57;;;21.80;53.10;;;;;;4951075;28;20810;-70
2021/05/15 00:56:28;;;;;;;5.10;4.60;;;21.70;53.10;;;;;;4931189;28;20426;-68
2021/05/15 00:58:55;;;;;;;5.50;5.00;;;21.70;52.90;;;;;;4930234;28;20418;-68
2021/05/15 01:01:21;;;;;;;4.57;4.28;;;21.70;52.90;;;;;;4945992;28;20410;-68
2021/05/15 01:03:48;;;;;;;4.93;4.53;;;21.70;53.00;;;;;;4941934;28;20422;-68
2021/05/15 01:06:14;;;;;;;5.05;4.65;;;21.70;52.90;;;;;;4930820;28;20438;-71
2021/05/15 01:08:44;;;;;;;4.65;4.30;;;21.70;53.10;;;;;;4935995;28;20470;-68
2021/05/15 01:11:11;;;;;;;6.50;4.93;;;21.70;53.20;;;;;;4950050;28;20876;-68
2021/05/15 01:13:37;;;;;;;4.50;4.20;;;21.80;53.20;;;;;;4929472;28;20924;-67
2021/05/15 01:16:05;;;;;;;4.35;3.95;;;21.80;53.10;;;;;;4930797;28;20775;-68
2021/05/15 01:18:31;;;;;;;5.20;4.80;;;21.80;53.10;;;;;;4931285;28;20437;-69
2021/05/15 01:20:59;;;;;;;5.43;5.13;;;21.80;52.70;;;;;;4929114;28;20413;-70
2021/05/15 01:23:25;;;;;;;5.30;4.90;;;21.80;53.00;;;;;;4929940;28;20421;-69
2021/05/15 01:25:51;;;;;;;5.32;4.82;;;21.80;52.60;;;;;;4930522;28;20431;-70
2021/05/15 01:28:17;;;;;;;7.05;4.50;;;21.70;52.60;;;;;;4932026;28;20439;-70
2021/05/15 01:30:44;;;;;;;5.55;4.80;;;21.70;52.90;;;;;;4929990;28;20431;-70
2021/05/15 01:33:10;;;;;;;5.93;4.77;;;21.80;52.90;;;;;;4931347;28;20796;-69
2021/05/15 01:35:36;;;;;;;5.55;5.15;;;21.80;53.00;;;;;;4920239;28;20795;-70
2021/05/15 01:38:03;;;;;;;4.35;4.05;;;21.80;52.80;;;;;;4947058;28;20849;-72
2021/05/15 01:40:29;;;;;;;4.90;4.50;;;21.90;52.70;;;;;;4951142;28;20599;-71
2021/05/15 01:42:55;;;;;;;5.13;4.73;;;21.90;52.50;;;;;;4930929;28;20442;-72
2021/05/15 01:45:21;;;;;;;5.10;4.70;;;22.00;52.40;;;;;;4944788;28;20412;-68
2021/05/15 01:47:48;;;;;;;4.60;4.30;;;22.00;52.20;;;;;;4932451;28;21614;-68
2021/05/15 01:50:17;;;;;;;5.30;4.90;;;22.00;52.20;;;;;;4942441;28;20429;-68
2021/05/15 01:52:43;;;;;;;5.20;4.80;;;22.00;52.00;;;;;;4925921;28;20879;-71
2021/05/15 01:55:12;;;;;;;5.40;4.90;;;22.10;52.20;;;;;;4946567;28;20420;-69
2021/05/15 01:57:38;;;;;;;6.22;4.75;;;22.00;52.10;;;;;;4933976;28;22023;-68
2021/05/15 02:00:06;;;;;;;4.63;4.30;;;22.00;52.20;;;;;;4930372;28;20480;-68
2021/05/15 02:02:32;;;;;;;5.03;4.60;;;21.90;52.30;;;;;;4931172;28;20902;-73
2021/05/15 02:04:58;;;;;;;5.30;4.90;;;21.90;52.70;;;;;;4934674;28;20419;-69
2021/05/15 02:07:24;;;;;;;5.57;5.07;;;21.90;52.40;;;;;;4938814;28;20449;-69
2021/05/15 02:09:50;;;;;;;7.00;5.10;;;21.80;52.10;;;;;;4931611;28;20427;-69
2021/05/15 02:12:17;;;;;;;5.27;4.87;;;21.80;52.20;;;;;;4938474;28;20424;-72
2021/05/15 02:14:43;;;;;;;5.82;5.38;;;21.80;52.30;;;;;;4948973;28;20791;-68
2021/05/15 02:17:09;;;;;;;5.20;4.80;;;21.80;52.40;;;;;;4925785;28;20453;-69
2021/05/15 02:19:35;;;;;;;5.38;4.88;;;21.80;52.30;;;;;;4953850;28;21602;-68
2021/05/15 02:22:02;;;;;;;5.60;5.20;;;21.80;52.30;;;;;;4936421;28;20435;-71
2021/05/15 02:24:28;;;;;;;5.28;4.88;;;21.80;52.40;;;;;;4929421;28;20505;-68
2021/05/15 02:26:54;;;;;;;5.90;5.40;;;21.80;52.30;;;;;;4932914;28;20420;-68
2021/05/15 02:29:21;;;;;;;5.30;4.90;;;21.80;52.30;;;;;;4946175;28;20414;-69
2021/05/15 02:31:47;;;;;;;5.53;5.10;;;21.80;52.30;;;;;;4938854;28;20424;-67
2021/05/15 02:34:13;;;;;;;5.15;4.85;;;21.80;52.10;;;;;;4931187;28;20917;-68
2021/05/15 02:36:39;;;;;;;5.75;5.15;;;21.80;52.30;;;;;;4932816;28;20790;-67
2021/05/15 02:39:06;;;;;;;5.40;5.00;;;21.90;52.10;;;;;;4934394;28;20429;-68
2021/05/15 02:41:32;;;;;;;5.22;4.90;;;21.90;52.20;;;;;;4944756;28;20764;-67
2021/05/15 02:43:58;;;;;;;6.05;5.45;;;21.90;52.10;;;;;;4937721;28;20892;-68
2021/05/15 02:46:25;;;;;;;5.65;5.15;;;21.90;52.30;;;;;;4930292;28;20418;-68
2021/05/15 02:48:51;;;;;;;5.75;5.35;;;21.80;52.10;;;;;;4912361;28;20436;-68
2021/05/15 02:51:17;;;;;;;5.53;4.97;;;21.80;52.10;;;;;;4957125;28;20425;-72
2021/05/15 02:53:43;;;;;;;6.20;5.60;;;21.80;51.90;;;;;;4934709;28;20480;-72
2021/05/15 02:56:09;;;;;;;5.32;4.93;;;21.80;51.70;;;;;;4947895;28;20423;-70
2021/05/15 02:58:35;;;;;;;6.50;5.90;;;21.80;51.70;;;;;;4948944;28;20429;-70
2021/05/15 03:01:02;;;;;;;5.70;5.20;;;21.80;51.90;;;;;;4931208;28;20435;-71
2021/05/15 03:03:29;;;;;;;6.40;5.80;;;21.80;52.10;;;;;;4948494;28;20424;-71
2021/05/15 03:05:55;;;;;;;5.90;5.40;;;21.80;51.90;;;;;;4957402;28;20480;-69
2021/05/15 03:08:21;;;;;;;6.05;5.55;;;21.80;51.90;;;;;;4936125;28;20430;-68
2021/05/15 03:10:47;;;;;;;5.80;5.20;;;21.80;52.10;;;;;;4935087;28;20430;-67
2021/05/15 03:13:13;;;;;;;6.00;5.50;;;21.70;51.80;;;;;;4936317;28;20444;-68
2021/05/15 03:15:39;;;;;;;5.80;5.30;;;21.80;52.00;;;;;;4935122;28;20488;-67
2021/05/15 03:18:05;;;;;;;6.45;5.32;;;21.70;51.70;;;;;;4934375;28;20479;-66
2021/05/15 03:20:32;;;;;;;6.13;5.63;;;21.80;51.90;;;;;;4937397;28;20518;-70
2021/05/15 03:22:58;;;;;;;6.03;5.47;;;21.80;52.00;;;;;;4949864;28;20424;-69
2021/05/15 03:25:25;;;;;;;6.27;5.30;;;21.80;51.90;;;;;;4930391;28;21103;-69
2021/05/15 03:27:51;;;;;;;5.82;5.32;;;21.80;51.90;;;;;;4964021;28;20490;-67
2021/05/15 03:30:18;;;;;;;5.78;5.28;;;21.80;51.80;;;;;;4934678;28;20430;-67
2021/05/15 03:32:44;;;;;;;5.93;5.43;;;21.80;51.70;;;;;;4931551;28;20485;-67
2021/05/15 03:35:11;;;;;;;5.47;5.07;;;21.80;51.70;;;;;;4933486;28;20434;-67
2021/05/15 03:37:38;;;;;;;6.20;5.60;;;21.80;51.50;;;;;;4949415;28;20469;-67
2021/05/15 03:40:06;;;;;;;5.70;5.30;;;21.80;51.70;;;;;;4930885;28;20425;-70
2021/05/15 03:42:32;;;;;;;6.45;5.85;;;21.80;51.50;;;;;;4932126;28;20436;-72
2021/05/15 03:44:58;;;;;;;6.13;5.63;;;21.70;51.70;;;;;;4934632;28;21192;-70
2021/05/15 03:47:24;;;;;;;6.53;6.03;;;21.70;51.80;;;;;;4931462;28;20949;-66
2021/05/15 03:49:51;;;;;;;5.80;5.30;;;21.70;51.80;;;;;;4930248;28;20428;-67
2021/05/15 03:52:17;;;;;;;6.10;5.60;;;21.70;51.90;;;;;;4934663;28;20426;-68
2021/05/15 03:54:44;;;;;;;6.37;5.87;;;21.70;51.90;;;;;;4933852;28;20439;-69
2021/05/15 03:57:10;;;;;;;5.90;5.50;;;21.70;51.90;;;;;;4942721;28;20430;-69
2021/05/15 03:59:36;;;;;;;6.70;6.20;;;21.70;51.70;;;;;;4932646;28;20442;-69
2021/05/15 04:02:02;;;;;;;6.40;5.65;;;21.70;51.90;;;;;;4958518;28;20431;-68
2021/05/15 04:04:28;;;;;;;6.27;5.67;;;21.70;51.70;;;;;;4932738;28;20422;-67
2021/05/15 04:06:54;;;;;;;6.25;5.85;;;21.70;51.80;;;;;;4931131;28;20418;-70
2021/05/15 04:09:20;;;;;;;6.13;5.72;;;21.70;51.90;;;;;;4951793;28;20422;-69
2021/05/15 04:11:47;;;;;;;6.63;6.03;;;21.70;51.90;;;;;;4934340;28;20451;-70
2021/05/15 04:14:29;;;;;;;6.30;5.70;;;21.70;51.90;;;;;;4949632;28;20445;-67
2021/05/15 04:17:03;;;;;;;5.70;5.30;;;21.70;51.90;;;;;;4940033;28;20442;-71
2021/05/15 04:19:29;;;;;;;5.63;5.13;;;21.70;51.90;;;;;;4932458;28;20493;-68
2021/05/15 04:21:55;;;;;;;6.00;5.60;;;21.80;51.80;;;;;;4933411;28;20422;-69
2021/05/15 04:24:24;;;;;;;6.30;5.80;;;21.80;51.50;;;;;;4932722;28;20431;-67
2021/05/15 04:26:52;;;;;;;6.30;5.80;;;21.80;51.50;;;;;;4933498;28;20433;-70
2021/05/15 04:29:18;;;;;;;6.30;5.70;;;21.80;51.50;;;;;;4931413;28;20433;-68
2021/05/15 04:31:44;;;;;;;6.40;5.90;;;21.80;51.60;;;;;;4951717;28;20437;-67
2021/05/15 04:34:10;;;;;;;6.35;5.85;;;21.80;51.50;;;;;;4937000;28;20477;-68
2021/05/15 04:36:36;;;;;;;5.90;5.50;;;21.80;51.60;;;;;;4937423;28;20441;-68
2021/05/15 04:39:03;;;;;;;6.10;5.60;;;21.80;51.40;;;;;;4947078;28;20441;-70
2021/05/15 04:41:29;;;;;;;6.40;5.90;;;21.80;51.60;;;;;;4940690;28;20830;-69
2021/05/15 04:43:56;;;;;;;6.18;5.68;;;21.80;51.60;;;;;;4945266;28;20442;-67
2021/05/15 04:46:22;;;;;;;6.53;6.03;;;21.70;51.50;;;;;;4957028;28;21246;-67
2021/05/15 04:48:48;;;;;;;5.10;4.80;;;21.80;51.70;;;;;;4936368;28;20427;-68
2021/05/15 04:51:15;;;;;;;6.88;6.18;;;21.80;51.50;;;;;;4941091;28;20437;-67
2021/05/15 04:53:41;;;;;;;6.07;5.40;;;21.80;51.50;;;;;;4943246;28;20417;-68
2021/05/15 04:56:08;;;;;;;6.50;6.00;;;21.70;51.50;;;;;;4936559;28;20438;-68
2021/05/15 04:58:35;;;;;;;6.10;5.50;;;21.70;51.60;;;;;;4934387;28;20450;-71
2021/05/15 05:01:02;;;;;;;5.90;5.50;;;21.60;51.70;;;;;;4941486;28;20473;-67
2021/05/15 05:03:28;;;;;;;5.83;5.43;;;21.60;51.70;;;;;;4923633;28;20416;-69
2021/05/15 05:05:54;;;;;;;6.80;6.20;;;21.60;51.80;;;;;;4943599;28;20416;-70
2021/05/15 05:08:20;;;;;;;6.15;5.50;;;21.60;52.70;;;;;;4936139;28;20473;-70
2021/05/15 05:10:46;;;;;;;6.70;6.20;;;21.60;52.00;;;;;;4944004;28;20429;-70
2021/05/15 05:13:12;;;;;;;6.40;5.90;;;21.60;52.20;;;;;;4951974;28;20426;-69
2021/05/15 05:15:38;;;;;;;6.10;5.60;;;21.60;52.00;;;;;;4934247;28;20485;-70
2021/05/15 05:18:06;;;;;;;6.53;5.80;;;21.60;52.00;;;;;;4929718;28;20508;-69
2021/05/15 05:20:32;;;;;;;6.70;6.10;;;21.70;52.00;;;;;;4931431;28;20422;-69
2021/05/15 05:22:58;;;;;;;6.32;5.72;;;21.70;51.90;;;;;;4930793;28;20426;-68
2021/05/15 05:25:24;;;;;;;5.70;5.30;;;21.70;51.70;;;;;;4930819;28;20553;-68
2021/05/15 05:27:50;;;;;;;5.97;5.40;;;21.80;51.60;;;;;;4930402;28;20544;-68
2021/05/15 05:30:18;;;;;;;7.70;6.30;;;21.80;51.40;;;;;;4931011;28;20427;-68
2021/05/15 05:32:44;;;;;;;6.00;5.50;;;21.90;51.40;;;;;;4931452;28;21168;-70
2021/05/15 05:35:11;;;;;;;5.78;5.38;;;21.90;51.20;;;;;;4932022;28;20429;-68
2021/05/15 05:37:38;;;;;;;6.50;5.90;;;21.90;51.40;;;;;;4947435;28;20485;-68
2021/05/15 05:40:05;;;;;;;6.70;6.00;;;21.90;51.40;;;;;;4927281;28;21577;-69
2021/05/15 05:42:31;;;;;;;6.38;5.80;;;21.80;51.40;;;;;;4940025;28;20442;-68
2021/05/15 05:44:57;;;;;;;6.03;5.53;;;21.80;51.40;;;;;;4939685;28;20423;-68
2021/05/15 05:47:23;;;;;;;6.50;5.90;;;21.80;51.30;;;;;;4941776;28;20426;-69
2021/05/15 05:49:49;;;;;;;5.20;4.90;;;21.80;51.40;;;;;;4918021;28;20420;-68
2021/05/15 05:52:16;;;;;;;6.10;5.60;;;21.80;51.10;;;;;;4959899;28;20423;-68
2021/05/15 05:54:42;;;;;;;6.27;5.67;;;21.80;51.20;;;;;;4931821;28;20418;-68
2021/05/15 05:57:09;;;;;;;5.60;5.10;;;21.80;51.20;;;;;;4952238;28;20426;-66
2021/05/15 05:59:35;;;;;;;6.00;5.50;;;21.80;50.80;;;;;;4938479;28;21366;-68
2021/05/15 06:02:01;;;;;;;6.05;5.55;;;21.80;51.00;;;;;;4913386;28;21239;-67
2021/05/15 06:04:27;;;;;;;5.30;4.90;;;21.80;51.00;;;;;;4959920;28;20970;-67
2021/05/15 06:06:53;;;;;;;5.60;5.10;;;21.80;51.10;;;;;;4939701;28;20889;-67
2021/05/15 06:09:20;;;;;;;5.43;4.97;;;21.80;50.80;;;;;;4922212;28;20430;-67
2021/05/15 06:11:46;;;;;;;5.10;4.70;;;21.80;51.00;;;;;;4935444;28;20931;-70
2021/05/15 06:14:12;;;;;;;5.70;5.30;;;21.90;51.00;;;;;;4925611;28;20416;-69
2021/05/15 06:16:39;;;;;;;5.10;4.70;;;21.90;50.80;;;;;;4932638;28;21017;-68
2021/05/15 06:19:05;;;;;;;5.22;4.72;;;21.90;50.70;;;;;;4925232;28;20418;-69
2021/05/15 06:21:31;;;;;;;5.05;4.57;;;21.90;50.70;;;;;;4919796;28;20459;-70
2021/05/15 06:23:57;;;;;;;5.00;4.60;;;21.90;51.50;;;;;;4921780;28;20431;-68
2021/05/15 06:26:24;;;;;;;5.20;4.57;;;21.90;50.80;;;;;;4947475;28;20420;-71
2021/05/15 06:28:50;;;;;;;4.97;4.47;;;21.90;50.80;;;;;;4938827;28;20412;-67
2021/05/15 06:31:16;;;;;;;5.50;5.00;;;21.90;50.80;;;;;;4949253;28;20426;-68
2021/05/15 06:33:42;;;;;;;4.88;4.47;;;21.90;50.60;;;;;;4935865;28;20417;-67
2021/05/15 06:36:09;;;;;;;5.78;4.90;;;22.00;50.40;;;;;;4943950;28;20477;-68
2021/05/15 06:38:35;;;;;;;5.00;4.50;;;22.00;50.40;;;;;;4957339;28;20516;-67
2021/05/15 06:41:01;;;;;;;4.70;4.30;;;22.00;50.30;;;;;;4936916;28;20441;-68
2021/05/15 06:43:28;;;;;;;6.47;4.40;;;22.00;50.30;;;;;;4931800;28;20460;-70
2021/05/15 06:45:54;;;;;;;5.50;4.97;;;22.00;50.60;;;;;;4963002;28;20484;-67
2021/05/15 06:48:20;;;;;;;4.80;4.50;;;21.90;50.50;;;;;;4942925;28;20475;-70
2021/05/15 06:50:46;;;;;;;6.20;5.20;;;21.90;50.70;;;;;;4930476;28;20428;-68
2021/05/15 06:53:13;;;;;;;4.97;4.40;;;21.90;50.80;;;;;;4960562;28;20429;-68
2021/05/15 06:55:39;;;;;;;6.27;5.40;;;21.90;50.70;;;;;;4929848;28;20498;-70
2021/05/15 06:58:05;;;;;;;5.80;5.30;;;21.80;50.50;;;;;;4943377;28;20420;-68
2021/05/15 07:00:32;;;;;;;5.30;4.80;;;21.80;50.70;;;;;;4931425;28;20415;-69
2021/05/15 07:02:58;;;;;;;4.80;4.40;;;21.80;50.70;;;;;;4952976;28;20438;-71
2021/05/15 07:05:24;;;;;;;5.45;4.88;;;21.80;50.80;;;;;;4936068;28;20430;-67
2021/05/15 07:07:51;;;;;;;6.30;4.60;;;21.80;50.80;;;;;;4937248;28;20410;-68
2021/05/15 07:10:17;;;;;;;6.03;4.45;;;21.80;50.70;;;;;;4950907;28;20406;-69
2021/05/15 07:12:43;;;;;;;5.20;4.80;;;21.80;50.80;;;;;;4941096;28;20462;-68
2021/05/15 07:15:09;;;;;;;4.95;4.45;;;21.80;50.70;;;;;;4941485;28;20438;-69
2021/05/15 07:17:36;;;;;;;5.20;4.70;;;21.80;50.80;;;;;;4930719;28;20434;-68
2021/05/15 07:20:03;;;;;;;6.95;4.78;;;21.80;50.60;;;;;;4942753;28;20995;-69
2021/05/15 07:22:29;;;;;;;5.50;5.00;;;21.80;50.40;;;;;;4941797;28;20423;-69
2021/05/15 07:24:56;;;;;;;7.55;5.38;;;21.90;50.40;;;;;;4931701;28;20433;-68
2021/05/15 07:27:22;;;;;;;5.30;4.80;;;21.90;50.20;;;;;;4934026;28;20492;-70
2021/05/15 07:29:49;;;;;;;7.93;5.30;;;21.90;50.20;;;;;;4933622;28;20425;-68
2021/05/15 07:32:15;;;;;;;5.70;5.20;;;21.80;50.00;;;;;;4934534;28;20421;-72
2021/05/15 07:34:42;;;;;;;5.60;5.10;;;21.80;50.10;;;;;;4933400;28;20897;-69
2021/05/15 07:37:09;;;;;;;5.47;4.97;;;21.80;50.00;;;;;;4939924;28;20423;-69
2021/05/15 07:39:36;;;;;;;5.53;4.85;;;21.80;50.20;;;;;;4940074;28;20449;-68
2021/05/15 07:42:02;;;;;;;5.30;4.82;;;21.80;50.20;;;;;;4925454;28;20569;-70
2021/05/15 07:44:28;;;;;;;5.50;4.90;;;21.80;50.00;;;;;;4953344;28;20424;-69
2021/05/15 07:46:54;;;;;;;8.25;6.00;;;21.80;49.80;;;;;;4924119;28;20430;-69
2021/05/15 07:49:20;;;;;;;6.05;5.55;;;21.80;50.10;;;;;;4958026;28;20434;-69
2021/05/15 07:51:49;;;;;;;6.20;5.60;;;21.70;50.10;;;;;;4931164;28;20920;-69
2021/05/15 07:54:15;;;;;;;6.10;5.50;;;21.70;50.10;;;;;;4945312;28;20421;-69
2021/05/15 07:56:42;;;;;;;5.50;5.00;;;21.70;50.10;;;;;;4935949;28;20418;-68
2021/05/15 07:59:08;;;;;;;7.65;4.97;;;21.80;50.10;;;;;;4932367;28;20546;-69
2021/05/15 08:01:34;;;;;;;5.70;5.20;;;21.80;49.90;;;;;;4924840;28;20453;-70
2021/05/15 08:04:00;;;;;;;5.80;5.10;;;21.80;49.80;;;;;;4928393;28;20440;-68
2021/05/15 08:06:26;;;;;;;5.80;5.30;;;21.80;49.80;;;;;;4931421;28;20434;-69
2021/05/15 08:08:53;;;;;;;5.40;5.00;;;21.80;49.70;;;;;;4942549;28;20432;-67
2021/05/15 08:11:19;;;;;;;6.20;5.60;;;21.80;49.70;;;;;;4931744;28;20454;-70
2021/05/15 08:13:45;;;;;;;5.80;5.20;;;21.80;49.70;;;;;;4951250;28;20427;-68
2021/05/15 08:16:12;;;;;;;4.70;4.40;;;21.80;49.80;;;;;;4926454;28;20421;-68
2021/05/15 08:18:39;;;;;;;6.00;5.45;;;21.80;49.80;;;;;;4940311;28;20432;-70
2021/05/15 08:21:05;;;;;;;5.37;4.97;;;21.80;49.90;;;;;;4933708;28;20470;-69
2021/05/15 08:23:35;;;;;;;5.18;4.78;;;21.80;49.90;;;;;;4943227;28;20430;-69
2021/05/15 08:26:02;;;;;;;5.07;4.68;;;21.80;49.90;;;;;;4961638;28;20536;-71
2021/05/15 08:28:28;;;;;;;6.40;4.82;;;21.90;49.90;;;;;;4928863;28;20447;-69
2021/05/15 08:30:55;;;;;;;6.00;5.40;;;21.90;49.80;;;;;;4939710;28;20410;-67
2021/05/15 08:33:21;;;;;;;5.95;5.35;;;21.90;49.80;;;;;;4930719;28;20414;-68
2021/05/15 08:35:47;;;;;;;6.87;5.07;;;21.90;50.70;;;;;;4932084;28;20428;-67
2021/05/15 08:38:13;;;;;;;5.38;4.97;;;21.90;49.90;;;;;;4952606;28;20492;-67
2021/05/15 08:40:40;;;;;;;5.40;4.90;;;21.80;50.00;;;;;;4939012;28;20424;-70
2021/05/15 08:43:07;;;;;;;6.13;5.63;;;21.80;50.00;;;;;;4928378;28;20416;-69
2021/05/15 08:45:33;;;;;;;4.90;4.50;;;21.80;50.10;;;;;;4931814;28;20972;-67
2021/05/15 08:47:59;;;;;;;5.38;4.90;;;21.80;50.10;;;;;;4941559;28;20406;-68
2021/05/15 08:50:27;;;;;;;5.28;4.88;;;21.80;51.00;;;;;;4938635;28;21816;-70
2021/05/15 08:52:54;;;;;;;5.28;4.78;;;21.80;50.20;;;;;;4924189;28;20861;-69
2021/05/15 08:55:21;;;;;;;5.20;4.70;;;21.80;50.10;;;;;;4939965;28;20928;-68
2021/05/15 08:57:47;;;;;;;5.10;4.70;;;21.90;50.00;;;;;;4930249;28;20439;-69
2021/05/15 09:00:16;;;;;;;4.90;4.50;;;21.90;50.00;;;;;;4931777;28;20428;-68
2021/05/15 09:02:44;;;;;;;7.38;4.88;;;21.90;50.00;;;;;;4931824;28;20440;-69
2021/05/15 09:05:11;;;;;;;4.80;4.40;;;21.90;50.00;;;;;;4921744;28;21038;-68
2021/05/15 09:07:37;;;;;;;4.57;4.18;;;21.90;49.90;;;;;;4929926;28;20434;-70
2021/05/15 09:10:03;;;;;;;4.68;4.38;;;21.90;49.90;;;;;;4939188;28;20763;-68
2021/05/15 09:12:30;;;;;;;5.00;4.70;;;21.90;49.90;;;;;;4939007;28;20465;-67
2021/05/15 09:14:58;;;;;;;5.07;4.67;;;21.90;49.90;;;;;;4943628;28;20436;-68
2021/05/15 09:17:25;;;;;;;4.90;4.50;;;21.90;50.00;;;;;;4928074;28;20414;-68
2021/05/15 09:19:52;;;;;;;4.80;4.40;;;21.90;50.00;;;;;;4947323;28;20479;-68
2021/05/15 09:22:24;;;;;;;5.10;4.60;;;21.80;50.00;;;;;;4924002;28;20424;-67
2021/05/15 09:24:50;;;;;;;5.20;4.72;;;21.80;50.20;;;;;;4926029;28;21769;-68
2021/05/15 09:27:16;;;;;;;5.13;4.30;;;21.80;50.30;;;;;;4934130;28;20861;-68
2021/05/15 09:29:42;;;;;;;4.90;4.50;;;21.80;50.40;;;;;;4948409;28;21006;-69
2021/05/15 09:32:08;;;;;;;5.03;4.63;;;21.80;50.30;;;;;;4935523;28;20430;-68
2021/05/15 09:34:44;;;;;;;5.40;3.90;;;21.80;50.20;;;;;;4932087;28;20425;-68
2021/05/15 09:37:10;;;;;;;4.80;4.40;;;21.80;50.10;;;;;;4940871;28;20426;-68
2021/05/15 09:39:36;;;;;;;6.10;4.60;;;21.80;50.10;;;;;;4941215;28;20438;-68
2021/05/15 09:42:03;;;;;;;4.57;4.28;;;21.90;50.10;;;;;;4935489;28;20480;-68
2021/05/15 09:44:30;;;;;;;4.55;4.25;;;21.90;50.10;;;;;;4937112;28;20485;-67
2021/05/15 09:46:57;;;;;;;5.00;4.50;;;21.80;50.10;;;;;;4941656;28;20833;-69
2021/05/15 09:49:24;;;;;;;5.05;4.32;;;21.80;50.20;;;;;;4942078;28;20478;-69
2021/05/15 09:51:52;;;;;;;4.60;4.20;;;21.80;50.30;;;;;;4922393;28;20425;-69
2021/05/15 09:54:20;;;;;;;5.43;4.40;;;21.80;50.30;;;;;;4960195;28;20436;-68
2021/05/15 09:56:55;;;;;;;4.80;4.43;;;21.80;50.30;;;;;;4931340;28;21273;-68
2021/05/15 09:59:29;;;;;;;4.70;4.30;;;21.80;50.40;;;;;;4933359;28;20418;-67
2021/05/15 10:01:59;;;;;;;4.50;4.10;;;21.80;50.20;;;;;;4932406;28;20470;-69
2021/05/15 10:04:25;;;;;;;4.20;3.90;;;21.80;50.30;;;;;;4946463;28;20506;-69
2021/05/15 10:06:52;;;;;;;4.60;4.20;;;21.80;50.30;;;;;;4914638;28;20415;-68
2021/05/15 10:09:28;;;;;;;4.75;4.13;;;21.80;50.30;;;;;;4959464;28;20451;-68
2021/05/15 10:11:54;;;;;;;5.07;4.00;;;21.80;50.20;;;;;;4930235;28;20410;-69
2021/05/15 10:14:21;;;;;;;4.07;3.83;;;21.80;50.10;;;;;;4953559;28;20435;-69
2021/05/15 10:16:47;;;;;;;5.00;3.95;;;21.80;50.30;;;;;;4939904;28;21251;-71
2021/05/15 10:19:14;;;;;;;5.32;4.50;;;21.80;50.40;;;;;;4958803;28;20441;-72
2021/05/15 10:21:40;;;;;;;4.50;4.10;;;21.80;51.20;;;;;;4934581;28;20488;-68
2021/05/15 10:24:16;;;;;;;4.30;3.90;;;21.80;50.30;;;;;;4954918;28;20449;-68
2021/05/15 10:26:42;;;;;;;4.55;4.15;;;21.80;50.40;;;;;;4934511;28;20409;-67
2021/05/15 10:29:08;;;;;;;4.70;4.30;;;21.80;50.30;;;;;;4956632;28;20480;-68
2021/05/15 10:31:36;;;;;;;5.40;4.50;;;21.80;50.40;;;;;;4936671;28;20445;-67
2021/05/15 10:34:02;;;;;;;4.40;4.00;;;21.80;50.30;;;;;;4935156;28;20431;-69
2021/05/15 10:36:28;;;;;;;4.78;4.38;;;21.80;50.30;;;;;;4919996;28;20420;-67
2021/05/15 10:38:55;;;;;;;5.53;4.80;;;21.90;50.20;;;;;;4934083;28;20485;-69
2021/05/15 10:41:24;;;;;;;7.13;4.90;;;21.90;50.20;;;;;;4942768;28;20437;-67
2021/05/15 10:43:50;;;;;;;5.50;5.10;;;21.80;50.10;;;;;;4936168;28;21194;-70
2021/05/15 10:46:19;;;;;;;5.20;4.65;;;21.80;50.20;;;;;;4934053;28;20572;-69
2021/05/15 10:48:56;;;;;;;6.57;5.05;;;21.80;50.20;;;;;;4935959;28;20425;-71
2021/05/15 10:51:34;;;;;;;5.40;4.90;;;21.80;50.10;;;;;;4936221;28;20441;-68
2021/05/15 10:54:01;;;;;;;5.25;4.75;;;21.80;50.20;;;;;;4919156;28;20432;-71
2021/05/15 10:56:29;;;;;;;5.70;5.20;;;21.80;50.40;;;;;;4944632;28;20854;-70
2021/05/15 10:59:04;;;;;;;5.53;4.93;;;21.80;50.40;;;;;;4933799;28;20438;-68
2021/05/15 11:01:42;;;;;;;8.73;5.00;;;21.80;50.50;;;;;;4942210;28;20472;-68
2021/05/15 11:04:19;;;;;;;5.20;4.70;;;21.80;50.50;;;;;;4951454;28;20420;-68
2021/05/15 11:06:56;;;;;;;5.20;4.70;;;21.80;50.50;;;;;;4932347;28;20778;-69
2021/05/15 11:09:22;;;;;;;7.20;5.18;;;21.80;50.50;;;;;;4954930;28;20422;-68
2021/05/15 11:11:49;;;;;;;5.10;4.60;;;21.80;50.40;;;;;;4936852;28;20432;-67
2021/05/15 11:14:26;;;;;;;5.72;5.20;;;21.80;50.50;;;;;;4934749;28;20866;-69
2021/05/15 11:17:11;;;;;;;5.68;5.18;;;21.80;50.60;;;;;;4935642;28;20462;-68
2021/05/15 11:19:37;;;;;;;6.20;5.10;;;21.80;50.50;;;;;;4885584;28;1264177;-68
2021/05/15 11:22:04;;;;;;;6.28;5.30;;;21.80;50.50;;;;;;4950752;28;20556;-68
2021/05/15 11:24:31;;;;;;;5.68;5.13;;;21.80;50.60;;;;;;4956622;28;20828;-68
2021/05/15 11:27:07;;;;;;;8.63;5.30;;;21.80;50.60;;;;;;4935186;28;20493;-69
2021/05/15 11:29:33;;;;;;;5.32;4.93;;;21.80;50.60;;;;;;4952711;28;20430;-69
2021/05/15 11:32:10;;;;;;;6.68;5.15;;;21.90;50.60;;;;;;4932920;28;20521;-69
2021/05/15 11:34:36;;;;;;;5.68;5.18;;;21.90;50.80;;;;;;4946026;28;21484;-69
2021/05/15 11:37:03;;;;;;;7.70;5.77;;;21.90;50.80;;;;;;4946569;28;20428;-68
2021/05/15 11:39:29;;;;;;;5.57;5.07;;;21.90;50.70;;;;;;4946631;28;20426;-68
2021/05/15 11:42:03;;;;;;;8.90;5.03;;;21.80;50.80;;;;;;4935478;28;20428;-68
2021/05/15 11:44:29;;;;;;;5.70;5.05;;;21.80;50.90;;;;;;4934898;28;20429;-67
2021/05/15 11:46:55;;;;;;;5.88;5.38;;;21.80;50.90;;;;;;4948047;28;20429;-69
2021/05/15 11:49:22;;;;;;;6.95;5.60;;;21.70;50.90;;;;;;4945949;28;20421;-69
2021/05/15 11:51:59;;;;;;;6.55;5.50;;;21.80;51.00;;;;;;4932063;28;21346;-68
2021/05/15 11:54:26;;;;;;;6.70;5.70;;;21.80;51.00;;;;;;4935436;28;20462;-67
2021/05/15 11:56:52;;;;;;;7.68;5.30;;;21.70;50.80;;;;;;4933292;28;20434;-69
2021/05/15 11:59:20;;;;;;;6.50;5.60;;;21.70;50.90;;;;;;4946757;28;20416;-68
2021/05/15 12:01:46;;;;;;;7.20;5.80;;;21.70;51.00;;;;;;4954644;28;21059;-68
2021/05/15 12:04:14;;;;;;;8.15;5.68;;;21.70;51.00;;;;;;4947431;28;20432;-70
2021/05/15 12:06:40;;;;;;;8.70;6.05;;;21.70;51.00;;;;;;4929949;28;20432;-68
2021/05/15 12:09:11;;;;;;;5.72;5.13;;;21.80;51.40;;;;;;4942565;28;20431;-68
2021/05/15 12:11:37;;;;;;;5.15;4.75;;;21.80;51.20;;;;;;4934008;28;20509;-70
2021/05/15 12:14:04;;;;;;;8.38;5.40;;;21.90;51.30;;;;;;4949756;28;20420;-69
2021/05/15 12:16:36;;;;;;;7.40;5.88;;;21.90;51.20;;;;;;4939495;28;20417;-68
2021/05/15 12:19:02;;;;;;;6.00;5.40;;;21.90;51.00;;;;;;4946500;28;21320;-68
2021/05/15 12:21:28;;;;;;;6.15;5.32;;;21.90;50.80;;;;;;4946457;28;20573;-67
2021/05/15 12:24:01;;;;;;;6.57;4.80;;;21.90;50.90;;;;;;4933189;28;20483;-67
2021/05/15 12:26:27;;;;;;;6.20;5.40;;;21.90;50.90;;;;;;4934997;28;20497;-71
2021/05/15 12:28:53;;;;;;;7.68;5.07;;;21.90;50.90;;;;;;4932739;28;20500;-70
2021/05/15 12:31:20;;;;;;;6.20;5.10;;;21.90;51.00;;;;;;4949177;28;20510;-70
2021/05/15 12:33:47;;;;;;;6.35;5.00;;;21.90;51.00;;;;;;4944733;28;20416;-67
2021/05/15 12:36:14;;;;;;;7.13;4.75;;;21.90;51.00;;;;;;4948908;28;20426;-69
2021/05/15 12:38:45;;;;;;;9.05;5.32;;;21.80;51.00;;;;;;4956550;28;20430;-70
2021/05/15 12:41:13;;;;;;;5.60;5.10;;;21.80;51.10;;;;;;4933667;28;20426;-69
2021/05/15 12:43:39;;;;;;;6.13;5.25;;;21.80;51.00;;;;;;4942557;28;20508;-68
2021/05/15 12:46:15;;;;;;;8.52;5.95;;;21.80;51.00;;;;;;4963719;28;20434;-69